PABE/BET METAR and TAF weather

Enter ICAO airport designator
Station Type Date Time Source
PABE METAR 2022/06/30 12:53 UTC NOAA

PABE 301253Z 00000KT 10SM OVC043 12/10 A3006 RMK AO2 SLP179 T01170100


Station Type Date Time Source
PABE Decoded METAR 2022/06/30 12:53 UTC NOAA

BETHEL AIRPORT, AK, United States (PABE) 60-47N 161-50W 46M
Jun 30, 2022 - 08:53 AM EDT / 2022.06.30 1253 UTC
Wind: Calm:0
Visibility: 10 mile(s):0
Sky conditions: overcast
Temperature: 53.1 F (11.7 C)
Dew Point: 50.0 F (10.0 C)
Relative Humidity: 89%
Pressure (altimeter): 30.06 in. Hg (1017 hPa)
ob: PABE 301253Z 00000KT 10SM OVC043 12/10 A3006 RMK AO2 SLP179 T01170100
cycle: 13

Station Type Date Time Source
PABE TAF 2022/06/30 12:27 UTC NOAA

TAF PABE 301123Z 3012/0112 VRB06KT P6SM BKN050
FM302000 15015G25KT P6SM SCT200

Example: see airport list